sensor_id;sensor_type;location;lat;lon;timestamp;temperature;humidity
34644;DHT22;26931;43.498;-1.506;2023-06-19T00:01:21;22.30;99.90
34644;DHT22;26931;43.498;-1.506;2023-06-19T00:03:47;22.20;99.90
34644;DHT22;26931;43.498;-1.506;2023-06-19T00:06:13;22.30;99.90
34644;DHT22;26931;43.498;-1.506;2023-06-19T00:08:42;22.30;99.90
34644;DHT22;26931;43.498;-1.506;2023-06-19T00:11:08;22.30;99.90
34644;DHT22;26931;43.498;-1.506;2023-06-19T00:13:34;22.30;99.90
34644;DHT22;26931;43.498;-1.506;2023-06-19T00:16:00;22.30;99.90
34644;DHT22;26931;43.498;-1.506;2023-06-19T00:18:27;22.30;99.90
34644;DHT22;26931;43.498;-1.506;2023-06-19T00:20:54;22.30;99.90
34644;DHT22;26931;43.498;-1.506;2023-06-19T00:23:22;22.30;99.90
34644;DHT22;26931;43.498;-1.506;2023-06-19T00:25:48;22.30;99.90
34644;DHT22;26931;43.498;-1.506;2023-06-19T00:28:14;22.30;99.90
34644;DHT22;26931;43.498;-1.506;2023-06-19T00:30:45;22.30;99.90
34644;DHT22;26931;43.498;-1.506;2023-06-19T00:33:11;22.30;99.90
34644;DHT22;26931;43.498;-1.506;2023-06-19T00:35:37;22.30;99.90
34644;DHT22;26931;43.498;-1.506;2023-06-19T00:38:04;22.30;99.90
34644;DHT22;26931;43.498;-1.506;2023-06-19T00:40:32;22.30;99.90
34644;DHT22;26931;43.498;-1.506;2023-06-19T00:42:59;22.30;99.90
34644;DHT22;26931;43.498;-1.506;2023-06-19T00:45:25;22.20;99.90
34644;DHT22;26931;43.498;-1.506;2023-06-19T00:47:55;22.30;99.90
34644;DHT22;26931;43.498;-1.506;2023-06-19T00:50:21;22.30;99.90
34644;DHT22;26931;43.498;-1.506;2023-06-19T00:52:48;22.30;99.90
34644;DHT22;26931;43.498;-1.506;2023-06-19T00:55:15;22.30;99.90
34644;DHT22;26931;43.498;-1.506;2023-06-19T00:57:42;22.50;99.90
34644;DHT22;26931;43.498;-1.506;2023-06-19T01:00:09;22.50;99.90
34644;DHT22;26931;43.498;-1.506;2023-06-19T01:02:37;22.30;99.90
34644;DHT22;26931;43.498;-1.506;2023-06-19T01:05:03;22.30;99.90
34644;DHT22;26931;43.498;-1.506;2023-06-19T01:07:59;22.20;99.90
34644;DHT22;26931;43.498;-1.506;2023-06-19T01:10:28;22.30;99.90
34644;DHT22;26931;43.498;-1.506;2023-06-19T01:13:29;22.50;99.90
34644;DHT22;26931;43.498;-1.506;2023-06-19T01:15:57;22.50;99.90
34644;DHT22;26931;43.498;-1.506;2023-06-19T01:18:24;22.30;99.90
34644;DHT22;26931;43.498;-1.506;2023-06-19T01:20:52;22.50;99.90
34644;DHT22;26931;43.498;-1.506;2023-06-19T01:23:18;22.30;99.90
34644;DHT22;26931;43.498;-1.506;2023-06-19T01:25:44;22.30;99.90
34644;DHT22;26931;43.498;-1.506;2023-06-19T01:28:11;22.30;99.90
34644;DHT22;26931;43.498;-1.506;2023-06-19T01:30:42;22.30;99.90
34644;DHT22;26931;43.498;-1.506;2023-06-19T01:33:15;22.20;99.90
34644;DHT22;26931;43.498;-1.506;2023-06-19T01:35:43;22.30;99.90
34644;DHT22;26931;43.498;-1.506;2023-06-19T01:38:12;22.30;99.90
34644;DHT22;26931;43.498;-1.506;2023-06-19T01:40:40;22.30;99.90
34644;DHT22;26931;43.498;-1.506;2023-06-19T01:43:07;22.30;99.90
34644;DHT22;26931;43.498;-1.506;2023-06-19T01:45:34;22.30;99.90
34644;DHT22;26931;43.498;-1.506;2023-06-19T01:48:00;22.30;99.90
34644;DHT22;26931;43.498;-1.506;2023-06-19T01:50:26;22.30;99.90
34644;DHT22;26931;43.498;-1.506;2023-06-19T01:52:53;22.30;99.90
34644;DHT22;26931;43.498;-1.506;2023-06-19T01:55:19;22.40;99.90
34644;DHT22;26931;43.498;-1.506;2023-06-19T01:57:45;22.30;99.90
34644;DHT22;26931;43.498;-1.506;2023-06-19T02:00:12;22.30;99.90
34644;DHT22;26931;43.498;-1.506;2023-06-19T02:02:38;22.30;99.90
34644;DHT22;26931;43.498;-1.506;2023-06-19T02:05:04;22.30;99.90
34644;DHT22;26931;43.498;-1.506;2023-06-19T02:07:30;22.30;99.90
34644;DHT22;26931;43.498;-1.506;2023-06-19T02:09:57;22.30;99.90
34644;DHT22;26931;43.498;-1.506;2023-06-19T02:12:23;22.30;99.90
34644;DHT22;26931;43.498;-1.506;2023-06-19T02:14:49;22.40;99.90
34644;DHT22;26931;43.498;-1.506;2023-06-19T02:17:16;22.30;99.90
34644;DHT22;26931;43.498;-1.506;2023-06-19T02:19:42;22.30;99.90
34644;DHT22;26931;43.498;-1.506;2023-06-19T02:22:08;22.50;99.90
34644;DHT22;26931;43.498;-1.506;2023-06-19T02:24:34;22.30;99.90
34644;DHT22;26931;43.498;-1.506;2023-06-19T02:27:02;22.30;99.90
34644;DHT22;26931;43.498;-1.506;2023-06-19T02:29:28;22.40;99.90
34644;DHT22;26931;43.498;-1.506;2023-06-19T02:31:55;22.30;99.90
34644;DHT22;26931;43.498;-1.506;2023-06-19T02:34:22;22.30;99.90
34644;DHT22;26931;43.498;-1.506;2023-06-19T02:36:49;22.40;99.90
34644;DHT22;26931;43.498;-1.506;2023-06-19T02:39:15;22.40;99.90
34644;DHT22;26931;43.498;-1.506;2023-06-19T02:41:42;22.30;99.90
34644;DHT22;26931;43.498;-1.506;2023-06-19T02:44:11;22.40;99.90
34644;DHT22;26931;43.498;-1.506;2023-06-19T02:46:38;22.30;99.90
34644;DHT22;26931;43.498;-1.506;2023-06-19T02:49:04;22.40;99.90
34644;DHT22;26931;43.498;-1.506;2023-06-19T02:51:30;22.30;99.90
34644;DHT22;26931;43.498;-1.506;2023-06-19T02:53:56;22.20;99.90
34644;DHT22;26931;43.498;-1.506;2023-06-19T02:56:24;22.30;99.90
34644;DHT22;26931;43.498;-1.506;2023-06-19T02:58:50;22.10;99.90
34644;DHT22;26931;43.498;-1.506;2023-06-19T03:01:16;22.20;99.90
34644;DHT22;26931;43.498;-1.506;2023-06-19T03:03:42;22.30;99.90
34644;DHT22;26931;43.498;-1.506;2023-06-19T03:06:08;22.10;99.90
34644;DHT22;26931;43.498;-1.506;2023-06-19T03:08:35;22.10;99.90
34644;DHT22;26931;43.498;-1.506;2023-06-19T03:11:02;22.30;99.90
34644;DHT22;26931;43.498;-1.506;2023-06-19T03:13:50;22.10;99.90
34644;DHT22;26931;43.498;-1.506;2023-06-19T03:16:16;22.10;99.90
34644;DHT22;26931;43.498;-1.506;2023-06-19T03:18:43;22.10;99.90
34644;DHT22;26931;43.498;-1.506;2023-06-19T03:21:16;22.30;99.90
34644;DHT22;26931;43.498;-1.506;2023-06-19T03:23:44;22.20;99.90
34644;DHT22;26931;43.498;-1.506;2023-06-19T03:26:12;22.20;99.90
34644;DHT22;26931;43.498;-1.506;2023-06-19T03:28:38;22.10;99.90
34644;DHT22;26931;43.498;-1.506;2023-06-19T03:31:06;22.10;99.90
34644;DHT22;26931;43.498;-1.506;2023-06-19T03:33:32;22.10;99.90
34644;DHT22;26931;43.498;-1.506;2023-06-19T03:35:58;22.20;99.90
34644;DHT22;26931;43.498;-1.506;2023-06-19T03:38:25;22.10;99.90
34644;DHT22;26931;43.498;-1.506;2023-06-19T03:40:51;22.10;99.90
34644;DHT22;26931;43.498;-1.506;2023-06-19T03:43:17;22.20;99.90
34644;DHT22;26931;43.498;-1.506;2023-06-19T03:45:43;22.10;99.90
34644;DHT22;26931;43.498;-1.506;2023-06-19T03:48:09;22.20;99.90
34644;DHT22;26931;43.498;-1.506;2023-06-19T03:50:37;22.00;99.90
34644;DHT22;26931;43.498;-1.506;2023-06-19T03:53:03;22.10;99.90
34644;DHT22;26931;43.498;-1.506;2023-06-19T03:55:30;22.10;99.90
34644;DHT22;26931;43.498;-1.506;2023-06-19T03:57:58;22.00;99.90
34644;DHT22;26931;43.498;-1.506;2023-06-19T04:00:27;22.00;99.90
34644;DHT22;26931;43.498;-1.506;2023-06-19T04:02:54;22.00;99.90
34644;DHT22;26931;43.498;-1.506;2023-06-19T04:05:20;22.00;99.90
34644;DHT22;26931;43.498;-1.506;2023-06-19T04:07:46;22.00;99.90
34644;DHT22;26931;43.498;-1.506;2023-06-19T04:10:12;22.00;99.90
34644;DHT22;26931;43.498;-1.506;2023-06-19T04:12:38;22.20;99.90
34644;DHT22;26931;43.498;-1.506;2023-06-19T04:15:08;21.80;99.90
34644;DHT22;26931;43.498;-1.506;2023-06-19T04:17:34;22.10;99.90
34644;DHT22;26931;43.498;-1.506;2023-06-19T04:20:00;22.00;99.90
34644;DHT22;26931;43.498;-1.506;2023-06-19T04:22:26;22.00;99.90
34644;DHT22;26931;43.498;-1.506;2023-06-19T04:24:52;22.20;99.90
34644;DHT22;26931;43.498;-1.506;2023-06-19T04:27:18;22.00;99.90
34644;DHT22;26931;43.498;-1.506;2023-06-19T04:29:47;22.00;99.90
34644;DHT22;26931;43.498;-1.506;2023-06-19T04:32:13;22.00;99.90
34644;DHT22;26931;43.498;-1.506;2023-06-19T04:34:40;22.00;99.90
34644;DHT22;26931;43.498;-1.506;2023-06-19T04:37:07;22.10;99.90
34644;DHT22;26931;43.498;-1.506;2023-06-19T04:39:33;22.10;99.90
34644;DHT22;26931;43.498;-1.506;2023-06-19T04:41:59;22.00;99.90
34644;DHT22;26931;43.498;-1.506;2023-06-19T04:44:26;22.00;99.90
34644;DHT22;26931;43.498;-1.506;2023-06-19T04:46:52;22.10;99.90
34644;DHT22;26931;43.498;-1.506;2023-06-19T04:49:29;22.10;99.90
34644;DHT22;26931;43.498;-1.506;2023-06-19T04:51:58;22.10;99.90
34644;DHT22;26931;43.498;-1.506;2023-06-19T04:54:25;22.00;99.90
34644;DHT22;26931;43.498;-1.506;2023-06-19T04:56:51;22.10;99.90
34644;DHT22;26931;43.498;-1.506;2023-06-19T04:59:19;22.00;99.90
34644;DHT22;26931;43.498;-1.506;2023-06-19T05:01:45;22.00;99.90
34644;DHT22;26931;43.498;-1.506;2023-06-19T05:04:10;21.90;99.90
34644;DHT22;26931;43.498;-1.506;2023-06-19T05:06:37;21.90;99.90
34644;DHT22;26931;43.498;-1.506;2023-06-19T05:09:03;21.80;99.90
34644;DHT22;26931;43.498;-1.506;2023-06-19T05:11:30;21.70;99.90
34644;DHT22;26931;43.498;-1.506;2023-06-19T05:13:56;21.70;99.90
34644;DHT22;26931;43.498;-1.506;2023-06-19T05:16:23;21.70;99.90
34644;DHT22;26931;43.498;-1.506;2023-06-19T05:18:50;21.60;99.90
34644;DHT22;26931;43.498;-1.506;2023-06-19T05:21:17;21.50;99.90
34644;DHT22;26931;43.498;-1.506;2023-06-19T05:23:43;21.40;99.90
34644;DHT22;26931;43.498;-1.506;2023-06-19T05:26:09;21.40;99.90
34644;DHT22;26931;43.498;-1.506;2023-06-19T05:28:35;21.20;99.90
34644;DHT22;26931;43.498;-1.506;2023-06-19T05:31:01;21.20;99.90
34644;DHT22;26931;43.498;-1.506;2023-06-19T05:33:27;21.20;99.90
34644;DHT22;26931;43.498;-1.506;2023-06-19T05:35:53;21.40;99.90
34644;DHT22;26931;43.498;-1.506;2023-06-19T05:38:20;21.10;99.90
34644;DHT22;26931;43.498;-1.506;2023-06-19T05:40:46;21.10;99.90
34644;DHT22;26931;43.498;-1.506;2023-06-19T05:43:12;21.10;99.90
34644;DHT22;26931;43.498;-1.506;2023-06-19T05:45:38;21.10;99.90
34644;DHT22;26931;43.498;-1.506;2023-06-19T05:48:04;21.20;99.90
34644;DHT22;26931;43.498;-1.506;2023-06-19T05:50:29;21.20;99.90
34644;DHT22;26931;43.498;-1.506;2023-06-19T05:52:56;21.30;99.90
34644;DHT22;26931;43.498;-1.506;2023-06-19T05:55:22;21.40;99.90
34644;DHT22;26931;43.498;-1.506;2023-06-19T05:57:50;21.40;99.90
34644;DHT22;26931;43.498;-1.506;2023-06-19T06:00:17;21.40;99.90
34644;DHT22;26931;43.498;-1.506;2023-06-19T06:02:43;21.40;99.90
34644;DHT22;26931;43.498;-1.506;2023-06-19T06:05:09;21.40;99.90
34644;DHT22;26931;43.498;-1.506;2023-06-19T06:07:35;21.50;99.90
34644;DHT22;26931;43.498;-1.506;2023-06-19T06:10:01;21.50;99.90
34644;DHT22;26931;43.498;-1.506;2023-06-19T06:12:27;21.60;99.90
34644;DHT22;26931;43.498;-1.506;2023-06-19T06:14:53;21.60;99.90
34644;DHT22;26931;43.498;-1.506;2023-06-19T06:17:19;21.50;99.90
34644;DHT22;26931;43.498;-1.506;2023-06-19T06:19:44;21.50;99.90
34644;DHT22;26931;43.498;-1.506;2023-06-19T06:22:10;21.50;99.90
34644;DHT22;26931;43.498;-1.506;2023-06-19T06:24:36;21.60;99.90
34644;DHT22;26931;43.498;-1.506;2023-06-19T06:27:01;21.60;99.90
34644;DHT22;26931;43.498;-1.506;2023-06-19T06:29:28;21.60;99.90
34644;DHT22;26931;43.498;-1.506;2023-06-19T06:32:03;21.60;99.90
34644;DHT22;26931;43.498;-1.506;2023-06-19T06:34:30;21.70;99.90
34644;DHT22;26931;43.498;-1.506;2023-06-19T06:36:56;21.60;99.90
34644;DHT22;26931;43.498;-1.506;2023-06-19T06:39:21;21.70;99.90
34644;DHT22;26931;43.498;-1.506;2023-06-19T06:41:47;21.70;99.90
34644;DHT22;26931;43.498;-1.506;2023-06-19T06:44:13;21.70;99.90
34644;DHT22;26931;43.498;-1.506;2023-06-19T06:46:38;21.70;99.90
34644;DHT22;26931;43.498;-1.506;2023-06-19T06:49:04;21.70;99.90
34644;DHT22;26931;43.498;-1.506;2023-06-19T06:51:30;21.70;99.90
34644;DHT22;26931;43.498;-1.506;2023-06-19T06:53:55;21.70;99.90
34644;DHT22;26931;43.498;-1.506;2023-06-19T06:56:21;21.80;99.90
34644;DHT22;26931;43.498;-1.506;2023-06-19T06:58:47;21.70;99.90
34644;DHT22;26931;43.498;-1.506;2023-06-19T07:01:13;21.70;99.90
34644;DHT22;26931;43.498;-1.506;2023-06-19T07:03:39;21.80;99.90
34644;DHT22;26931;43.498;-1.506;2023-06-19T07:06:05;21.80;99.90
34644;DHT22;26931;43.498;-1.506;2023-06-19T07:08:30;21.90;99.90
34644;DHT22;26931;43.498;-1.506;2023-06-19T07:10:56;21.90;99.90
34644;DHT22;26931;43.498;-1.506;2023-06-19T07:13:23;21.90;99.90
34644;DHT22;26931;43.498;-1.506;2023-06-19T07:15:49;21.90;99.90
34644;DHT22;26931;43.498;-1.506;2023-06-19T07:18:14;22.00;99.90
34644;DHT22;26931;43.498;-1.506;2023-06-19T07:20:40;22.00;99.90
34644;DHT22;26931;43.498;-1.506;2023-06-19T07:23:06;22.00;99.90
34644;DHT22;26931;43.498;-1.506;2023-06-19T07:25:32;22.00;99.90
34644;DHT22;26931;43.498;-1.506;2023-06-19T07:27:59;22.00;99.90
34644;DHT22;26931;43.498;-1.506;2023-06-19T07:30:26;22.10;99.90
34644;DHT22;26931;43.498;-1.506;2023-06-19T07:32:52;22.10;99.90
34644;DHT22;26931;43.498;-1.506;2023-06-19T07:35:17;22.20;99.90
34644;DHT22;26931;43.498;-1.506;2023-06-19T07:37:44;22.20;99.90
34644;DHT22;26931;43.498;-1.506;2023-06-19T07:40:10;22.30;99.90
34644;DHT22;26931;43.498;-1.506;2023-06-19T07:42:36;22.30;99.90
34644;DHT22;26931;43.498;-1.506;2023-06-19T07:45:02;22.40;99.90
34644;DHT22;26931;43.498;-1.506;2023-06-19T07:47:27;22.50;99.90
34644;DHT22;26931;43.498;-1.506;2023-06-19T07:49:53;22.50;99.90
34644;DHT22;26931;43.498;-1.506;2023-06-19T07:52:19;22.60;99.90
34644;DHT22;26931;43.498;-1.506;2023-06-19T07:54:55;22.60;99.90
34644;DHT22;26931;43.498;-1.506;2023-06-19T07:57:22;22.60;99.90
34644;DHT22;26931;43.498;-1.506;2023-06-19T07:59:49;22.60;99.90
34644;DHT22;26931;43.498;-1.506;2023-06-19T08:02:15;22.60;99.90
34644;DHT22;26931;43.498;-1.506;2023-06-19T08:04:41;22.60;99.90
34644;DHT22;26931;43.498;-1.506;2023-06-19T08:07:07;22.70;99.90
34644;DHT22;26931;43.498;-1.506;2023-06-19T08:09:32;22.70;99.90
34644;DHT22;26931;43.498;-1.506;2023-06-19T08:11:58;22.70;99.90
34644;DHT22;26931;43.498;-1.506;2023-06-19T08:14:24;22.60;99.90
34644;DHT22;26931;43.498;-1.506;2023-06-19T08:16:50;22.60;99.90
34644;DHT22;26931;43.498;-1.506;2023-06-19T08:19:16;22.70;99.90
34644;DHT22;26931;43.498;-1.506;2023-06-19T08:21:41;22.80;99.90
34644;DHT22;26931;43.498;-1.506;2023-06-19T08:24:07;22.90;99.90
34644;DHT22;26931;43.498;-1.506;2023-06-19T08:26:33;22.90;99.90
34644;DHT22;26931;43.498;-1.506;2023-06-19T08:28:58;23.10;99.90
34644;DHT22;26931;43.498;-1.506;2023-06-19T08:31:24;23.00;99.90
34644;DHT22;26931;43.498;-1.506;2023-06-19T08:33:56;23.20;99.90
34644;DHT22;26931;43.498;-1.506;2023-06-19T08:36:22;23.20;99.90
34644;DHT22;26931;43.498;-1.506;2023-06-19T08:38:48;23.20;99.90
34644;DHT22;26931;43.498;-1.506;2023-06-19T08:41:18;23.20;99.80
34644;DHT22;26931;43.498;-1.506;2023-06-19T08:43:46;23.20;99.70
34644;DHT22;26931;43.498;-1.506;2023-06-19T08:46:15;23.20;99.50
34644;DHT22;26931;43.498;-1.506;2023-06-19T08:48:41;23.30;99.50
34644;DHT22;26931;43.498;-1.506;2023-06-19T08:51:07;23.30;99.50
34644;DHT22;26931;43.498;-1.506;2023-06-19T08:53:36;23.30;99.50
34644;DHT22;26931;43.498;-1.506;2023-06-19T08:56:03;23.30;99.50
34644;DHT22;26931;43.498;-1.506;2023-06-19T08:58:29;23.40;99.40
34644;DHT22;26931;43.498;-1.506;2023-06-19T09:00:57;23.30;99.30
34644;DHT22;26931;43.498;-1.506;2023-06-19T09:03:23;23.40;99.30
34644;DHT22;26931;43.498;-1.506;2023-06-19T09:05:49;23.50;99.20
34644;DHT22;26931;43.498;-1.506;2023-06-19T09:08:16;23.50;99.10
34644;DHT22;26931;43.498;-1.506;2023-06-19T09:10:43;23.50;99.10
34644;DHT22;26931;43.498;-1.506;2023-06-19T09:13:08;23.50;99.00
34644;DHT22;26931;43.498;-1.506;2023-06-19T09:15:36;23.60;98.90
34644;DHT22;26931;43.498;-1.506;2023-06-19T09:18:09;23.70;98.80
34644;DHT22;26931;43.498;-1.506;2023-06-19T09:20:41;23.90;98.60
34644;DHT22;26931;43.498;-1.506;2023-06-19T09:23:13;24.10;98.60
34644;DHT22;26931;43.498;-1.506;2023-06-19T09:28:26;24.30;98.10
34644;DHT22;26931;43.498;-1.506;2023-06-19T09:31:00;24.40;97.90
34644;DHT22;26931;43.498;-1.506;2023-06-19T09:33:29;24.40;97.70
34644;DHT22;26931;43.498;-1.506;2023-06-19T09:35:56;24.50;97.60
34644;DHT22;26931;43.498;-1.506;2023-06-19T09:38:28;24.50;97.40
34644;DHT22;26931;43.498;-1.506;2023-06-19T09:40:55;24.50;97.50
34644;DHT22;26931;43.498;-1.506;2023-06-19T09:43:30;24.50;97.40
34644;DHT22;26931;43.498;-1.506;2023-06-19T09:45:58;24.50;97.40
34644;DHT22;26931;43.498;-1.506;2023-06-19T09:48:30;24.50;97.50
34644;DHT22;26931;43.498;-1.506;2023-06-19T09:53:42;24.50;97.60
34644;DHT22;26931;43.498;-1.506;2023-06-19T09:56:09;24.50;97.50
34644;DHT22;26931;43.498;-1.506;2023-06-19T09:58:36;24.60;97.50
34644;DHT22;26931;43.498;-1.506;2023-06-19T10:01:04;24.70;97.50
34644;DHT22;26931;43.498;-1.506;2023-06-19T10:03:34;24.80;97.50
34644;DHT22;26931;43.498;-1.506;2023-06-19T10:06:01;24.90;97.50
34644;DHT22;26931;43.498;-1.506;2023-06-19T10:08:31;25.00;97.30
34644;DHT22;26931;43.498;-1.506;2023-06-19T10:10:57;25.10;97.00
34644;DHT22;26931;43.498;-1.506;2023-06-19T10:13:32;25.20;96.70
34644;DHT22;26931;43.498;-1.506;2023-06-19T10:15:59;25.30;96.40
34644;DHT22;26931;43.498;-1.506;2023-06-19T10:18:25;25.30;96.10
34644;DHT22;26931;43.498;-1.506;2023-06-19T10:20:53;25.30;95.80
34644;DHT22;26931;43.498;-1.506;2023-06-19T10:23:22;25.30;95.60
34644;DHT22;26931;43.498;-1.506;2023-06-19T10:25:58;25.30;95.40
34644;DHT22;26931;43.498;-1.506;2023-06-19T10:28:29;25.30;95.30
34644;DHT22;26931;43.498;-1.506;2023-06-19T10:31:00;25.30;95.20
34644;DHT22;26931;43.498;-1.506;2023-06-19T10:33:31;25.40;95.20
34644;DHT22;26931;43.498;-1.506;2023-06-19T10:36:01;25.50;95.00
34644;DHT22;26931;43.498;-1.506;2023-06-19T10:38:28;25.50;94.90
34644;DHT22;26931;43.498;-1.506;2023-06-19T10:40:53;25.60;94.50
34644;DHT22;26931;43.498;-1.506;2023-06-19T10:43:24;25.70;93.90
34644;DHT22;26931;43.498;-1.506;2023-06-19T10:45:51;25.80;93.20
34644;DHT22;26931;43.498;-1.506;2023-06-19T10:48:21;26.00;92.60
34644;DHT22;26931;43.498;-1.506;2023-06-19T10:50:48;26.10;92.40
34644;DHT22;26931;43.498;-1.506;2023-06-19T10:53:28;26.20;92.10
34644;DHT22;26931;43.498;-1.506;2023-06-19T10:55:58;26.30;91.10
34644;DHT22;26931;43.498;-1.506;2023-06-19T10:58:25;26.40;90.80
34644;DHT22;26931;43.498;-1.506;2023-06-19T11:00:51;26.40;90.50
34644;DHT22;26931;43.498;-1.506;2023-06-19T11:03:17;26.60;90.30
34644;DHT22;26931;43.498;-1.506;2023-06-19T11:05:46;26.70;89.90
34644;DHT22;26931;43.498;-1.506;2023-06-19T11:08:21;26.80;88.70
34644;DHT22;26931;43.498;-1.506;2023-06-19T11:10:47;26.90;88.40
34644;DHT22;26931;43.498;-1.506;2023-06-19T11:13:18;27.00;87.60
34644;DHT22;26931;43.498;-1.506;2023-06-19T11:15:45;27.10;86.80
34644;DHT22;26931;43.498;-1.506;2023-06-19T11:18:11;27.10;86.30
34644;DHT22;26931;43.498;-1.506;2023-06-19T11:23:10;27.30;85.80
34644;DHT22;26931;43.498;-1.506;2023-06-19T11:25:37;27.30;85.60
34644;DHT22;26931;43.498;-1.506;2023-06-19T11:28:14;27.40;85.60
34644;DHT22;26931;43.498;-1.506;2023-06-19T11:30:41;27.30;85.00
34644;DHT22;26931;43.498;-1.506;2023-06-19T11:33:17;27.30;85.60
34644;DHT22;26931;43.498;-1.506;2023-06-19T11:35:52;27.10;86.00
34644;DHT22;26931;43.498;-1.506;2023-06-19T11:38:22;27.10;85.90
34644;DHT22;26931;43.498;-1.506;2023-06-19T11:40:49;27.10;85.90
34644;DHT22;26931;43.498;-1.506;2023-06-19T11:43:24;27.00;85.70
34644;DHT22;26931;43.498;-1.506;2023-06-19T11:45:51;27.00;85.40
34644;DHT22;26931;43.498;-1.506;2023-06-19T11:48:24;27.00;85.10
34644;DHT22;26931;43.498;-1.506;2023-06-19T11:50:50;26.90;84.20
34644;DHT22;26931;43.498;-1.506;2023-06-19T11:53:17;27.00;83.80
34644;DHT22;26931;43.498;-1.506;2023-06-19T11:55:43;27.00;83.20
34644;DHT22;26931;43.498;-1.506;2023-06-19T11:58:09;26.90;82.60
34644;DHT22;26931;43.498;-1.506;2023-06-19T12:00:38;26.90;82.30
34644;DHT22;26931;43.498;-1.506;2023-06-19T12:03:04;26.90;81.70
34644;DHT22;26931;43.498;-1.506;2023-06-19T12:05:30;26.80;81.50
34644;DHT22;26931;43.498;-1.506;2023-06-19T12:07:56;26.80;81.40
34644;DHT22;26931;43.498;-1.506;2023-06-19T12:10:22;26.80;81.20
34644;DHT22;26931;43.498;-1.506;2023-06-19T12:12:48;26.70;80.90
34644;DHT22;26931;43.498;-1.506;2023-06-19T12:15:13;26.70;80.80
34644;DHT22;26931;43.498;-1.506;2023-06-19T12:17:42;26.70;80.90
34644;DHT22;26931;43.498;-1.506;2023-06-19T12:20:08;26.70;80.70
34644;DHT22;26931;43.498;-1.506;2023-06-19T12:22:39;26.70;80.60
34644;DHT22;26931;43.498;-1.506;2023-06-19T12:25:06;26.60;80.50
34644;DHT22;26931;43.498;-1.506;2023-06-19T12:27:32;26.60;81.10
34644;DHT22;26931;43.498;-1.506;2023-06-19T12:29:58;26.50;80.20
34644;DHT22;26931;43.498;-1.506;2023-06-19T12:32:24;26.50;80.10
34644;DHT22;26931;43.498;-1.506;2023-06-19T12:34:50;26.40;79.90
34644;DHT22;26931;43.498;-1.506;2023-06-19T12:37:20;26.40;79.90
34644;DHT22;26931;43.498;-1.506;2023-06-19T12:39:49;26.40;80.10
34644;DHT22;26931;43.498;-1.506;2023-06-19T12:42:15;26.30;80.40
34644;DHT22;26931;43.498;-1.506;2023-06-19T12:44:41;26.40;80.50
34644;DHT22;26931;43.498;-1.506;2023-06-19T12:47:08;26.40;80.30
34644;DHT22;26931;43.498;-1.506;2023-06-19T12:49:34;26.30;79.60
34644;DHT22;26931;43.498;-1.506;2023-06-19T12:52:00;26.30;79.40
34644;DHT22;26931;43.498;-1.506;2023-06-19T12:54:26;26.30;79.20
34644;DHT22;26931;43.498;-1.506;2023-06-19T12:56:52;26.20;78.90
34644;DHT22;26931;43.498;-1.506;2023-06-19T12:59:18;26.20;78.90
34644;DHT22;26931;43.498;-1.506;2023-06-19T13:01:44;26.20;78.80
34644;DHT22;26931;43.498;-1.506;2023-06-19T13:04:12;26.20;78.80
34644;DHT22;26931;43.498;-1.506;2023-06-19T13:06:38;26.20;78.70
34644;DHT22;26931;43.498;-1.506;2023-06-19T13:09:06;26.20;78.40
34644;DHT22;26931;43.498;-1.506;2023-06-19T13:11:32;26.20;78.10
34644;DHT22;26931;43.498;-1.506;2023-06-19T13:14:00;26.20;78.30
34644;DHT22;26931;43.498;-1.506;2023-06-19T13:16:26;26.10;78.10
34644;DHT22;26931;43.498;-1.506;2023-06-19T13:18:52;26.10;78.20
34644;DHT22;26931;43.498;-1.506;2023-06-19T13:21:17;26.10;78.50
34644;DHT22;26931;43.498;-1.506;2023-06-19T13:23:43;26.10;78.70
34644;DHT22;26931;43.498;-1.506;2023-06-19T13:26:09;26.10;78.80
34644;DHT22;26931;43.498;-1.506;2023-06-19T13:28:36;26.00;78.80
34644;DHT22;26931;43.498;-1.506;2023-06-19T13:31:02;26.00;78.80
34644;DHT22;26931;43.498;-1.506;2023-06-19T13:33:28;26.00;78.80
34644;DHT22;26931;43.498;-1.506;2023-06-19T13:35:54;26.00;78.60
34644;DHT22;26931;43.498;-1.506;2023-06-19T13:38:20;26.00;78.50
34644;DHT22;26931;43.498;-1.506;2023-06-19T13:40:47;25.90;78.40
34644;DHT22;26931;43.498;-1.506;2023-06-19T13:43:12;25.90;78.30
34644;DHT22;26931;43.498;-1.506;2023-06-19T13:45:38;25.80;78.20
34644;DHT22;26931;43.498;-1.506;2023-06-19T13:48:05;25.90;78.20
34644;DHT22;26931;43.498;-1.506;2023-06-19T13:50:31;25.80;78.10
34644;DHT22;26931;43.498;-1.506;2023-06-19T13:52:58;25.70;78.00
34644;DHT22;26931;43.498;-1.506;2023-06-19T13:55:24;25.70;78.20
34644;DHT22;26931;43.498;-1.506;2023-06-19T13:57:50;25.70;78.30
34644;DHT22;26931;43.498;-1.506;2023-06-19T14:00:16;25.70;78.30
34644;DHT22;26931;43.498;-1.506;2023-06-19T14:02:42;25.70;78.50
34644;DHT22;26931;43.498;-1.506;2023-06-19T14:05:09;25.60;78.60
34644;DHT22;26931;43.498;-1.506;2023-06-19T14:07:36;25.60;79.00
34644;DHT22;26931;43.498;-1.506;2023-06-19T14:10:03;25.60;79.50
34644;DHT22;26931;43.498;-1.506;2023-06-19T14:12:32;25.50;79.80
34644;DHT22;26931;43.498;-1.506;2023-06-19T14:14:57;25.50;80.10
34644;DHT22;26931;43.498;-1.506;2023-06-19T14:17:23;25.50;81.00
34644;DHT22;26931;43.498;-1.506;2023-06-19T14:19:49;25.50;80.50
34644;DHT22;26931;43.498;-1.506;2023-06-19T14:22:18;25.60;80.50
34644;DHT22;26931;43.498;-1.506;2023-06-19T14:24:44;25.60;80.40
34644;DHT22;26931;43.498;-1.506;2023-06-19T14:27:10;25.70;80.30
34644;DHT22;26931;43.498;-1.506;2023-06-19T14:29:36;25.70;80.10
34644;DHT22;26931;43.498;-1.506;2023-06-19T14:32:02;25.70;80.10
34644;DHT22;26931;43.498;-1.506;2023-06-19T14:34:28;25.80;79.80
34644;DHT22;26931;43.498;-1.506;2023-06-19T14:36:54;25.80;79.60
34644;DHT22;26931;43.498;-1.506;2023-06-19T14:39:19;25.80;79.40
34644;DHT22;26931;43.498;-1.506;2023-06-19T14:41:45;25.90;79.50
34644;DHT22;26931;43.498;-1.506;2023-06-19T14:44:11;25.90;79.70
34644;DHT22;26931;43.498;-1.506;2023-06-19T14:46:37;26.00;80.00
34644;DHT22;26931;43.498;-1.506;2023-06-19T14:49:12;26.00;80.00
34644;DHT22;26931;43.498;-1.506;2023-06-19T14:51:38;26.10;79.80
34644;DHT22;26931;43.498;-1.506;2023-06-19T14:54:04;26.20;79.50
34644;DHT22;26931;43.498;-1.506;2023-06-19T14:56:30;26.20;78.90
34644;DHT22;26931;43.498;-1.506;2023-06-19T14:58:56;26.20;78.30
34644;DHT22;26931;43.498;-1.506;2023-06-19T15:01:22;26.20;77.90
34644;DHT22;26931;43.498;-1.506;2023-06-19T15:03:48;26.30;77.80
34644;DHT22;26931;43.498;-1.506;2023-06-19T15:06:14;26.30;77.70
34644;DHT22;26931;43.498;-1.506;2023-06-19T15:08:42;26.30;77.40
34644;DHT22;26931;43.498;-1.506;2023-06-19T15:11:08;26.30;77.10
34644;DHT22;26931;43.498;-1.506;2023-06-19T15:13:34;26.40;76.80
34644;DHT22;26931;43.498;-1.506;2023-06-19T15:15:59;26.40;76.50
34644;DHT22;26931;43.498;-1.506;2023-06-19T15:18:26;26.40;76.10
34644;DHT22;26931;43.498;-1.506;2023-06-19T15:20:53;26.40;76.10
34644;DHT22;26931;43.498;-1.506;2023-06-19T15:23:19;26.50;76.40